Latest Weather Observations for Bougainville Reef

IDQ60801

Issued at 5:05 pm EST Monday 1 September 2014 (issued every 30 minutes, with the page automatically refreshed every 10 minutes)

About weather observations | Map of weather stations | Latest weather observations for QLD | Other Formats
Station Details ID: 200840 Name: BOUGAINVILLE REEF Lat: -15.49 Lon: 147.12 Height: 0.0 m
Data from the previous 72 hours. | See also: Recent months for locations in Queensland
Date/Time
EST
Temp
°C
App
Temp
°C
Dew
Point
Rel
Hum
%
Delta-T
°C
Wind Press
QNH
hPa
Press
MSL
hPa
Rain
since 9 am
mm
Dir
 
Spd
km/h
Gust
km/h
Spd
kts
Gust
kts
01/05:00pm 23.2 - - - - SE 28 35 15 19 1014.5 1014.3 -
01/04:30pm 23.3 - - - - SE 30 39 16 21 1014.4 - -
01/04:00pm 23.0 - - - - SSE 30 37 16 20 1014.2 1014.1 -
01/03:30pm 22.9 - - - - SSE 30 39 16 21 1014.1 - -
01/03:00pm 23.1 - - - - SSE 30 39 16 21 1014.2 1014.3 -
01/02:30pm 23.1 - - - - SSE 30 39 16 21 1014.5 - -
01/02:00pm 23.0 - - - - SSE 28 39 15 21 1014.7 1014.7 -
01/01:30pm 23.3 - - - - SSE 30 41 16 22 1015.0 - -
01/01:00pm 23.2 - - - - SSE 28 43 15 23 1015.3 1015.5 -
01/12:30pm 23.1 - - - - SSE 30 41 16 22 1015.7 - -
01/12:00pm 23.2 - - - - SSE 32 41 17 22 1016.2 1016.4 -
01/11:30am 23.3 - - - - SSE 33 43 18 23 1016.6 - -
01/11:00am 23.5 - - - - SE 35 46 19 25 1016.9 1016.7 -
01/10:30am 23.2 - - - - SE 33 41 18 22 1017.0 - -
01/10:00am 23.1 - - - - SE 35 43 19 23 1016.9 1016.8 -
01/09:30am 23.3 - - - - SE 33 43 18 23 1016.9 - -
01/09:00am 23.3 - - - - SSE 33 43 18 23 1016.7 1016.5 -
01/08:30am 23.3 - - - - SE 35 43 19 23 1016.4 - -
01/08:00am 23.1 - - - - SSE 33 41 18 22 1016.2 1016.0 -
01/07:30am 23.3 - - - - SE 35 44 19 24 1016.0 - -
01/07:00am 23.1 - - - - SE 35 43 19 23 1015.6 1015.4 -
01/06:30am 23.2 - - - - SSE 33 43 18 23 1015.4 - -
01/06:00am 23.1 - - - - SE 32 41 17 22 1015.0 1014.8 -
01/05:30am 23.2 - - - - SE 32 44 17 24 1014.9 - -
01/05:00am 23.0 - - - - SE 28 44 15 24 1014.6 1014.5 -
01/04:30am 23.1 - - - - SE 26 37 14 20 1014.6 - -
01/04:00am 23.3 - - - - SSE 26 37 14 20 1014.3 1014.1 -
01/03:30am 23.2 - - - - SE 26 44 14 24 1014.3 - -
01/03:00am 23.2 - - - - SE 24 41 13 22 1014.2 1014.1 -
01/02:30am 23.5 - - - - SE 28 41 15 22 1014.3 - -
01/02:00am 23.4 - - - - SE 30 43 16 23 1014.5 1014.4 -
01/01:30am 23.3 - - - - SSE 35 43 19 23 1014.6 - -
01/01:00am 23.4 - - - - ESE 37 43 20 23 1014.8 1014.7 -
01/12:30am 23.4 - - - - ESE 33 43 18 23 1015.0 - -
01/12:00am 23.4 - - - - ESE 35 43 19 23 1015.3 1015.3 -
 
Date/Time
EST
Temp
°C
App
Temp
°C
Dew
Point
Rel
Hum
%
Delta-T
°C
Wind Press
QNH
hPa
Press
MSL
hPa
Rain
since 9 am
mm
Dir
 
Spd
km/h
Gust
km/h
Spd
kts
Gust
kts
31/11:30pm 23.5 - - - - SE 37 43 20 23 1015.5 - -
31/11:00pm 23.8 - - - - SE 37 44 20 24 1015.6 1015.6 -
31/10:30pm 23.6 - - - - SE 35 46 19 25 1015.6 - -
31/10:00pm 23.6 - - - - SE 37 46 20 25 1015.6 1015.5 -
31/09:30pm 23.6 - - - - SE 41 48 22 26 1015.7 - -
31/09:00pm 23.5 - - - - SE 37 48 20 26 1015.6 1015.4 -
31/08:30pm 23.6 - - - - SE 39 52 21 28 1015.5 - -
31/08:00pm 23.4 - - - - SSE 41 46 22 25 1015.2 1015.1 -
31/07:30pm 23.3 - - - - SSE 35 46 19 25 1015.1 - -
31/07:20pm 23.3 - - - - SE 30 48 16 26 1015.1 - -
31/07:00pm 23.3 - - - - SE 28 41 15 22 1014.8 1014.5 -
31/06:30pm 23.3 - - - - SE 28 41 15 22 1014.3 - -
31/06:00pm 23.2 - - - - SSE 32 41 17 22 1013.8 1013.7 -
31/05:52pm 23.1 - - - - SE 28 46 15 25 1013.8 - -
31/05:30pm 23.1 - - - - SE 30 44 16 24 1013.5 - -
31/05:00pm 23.0 - - - - SE 30 43 16 23 1013.3 1013.0 -
31/04:30pm 23.2 - - - - SSE 28 43 15 23 1013.1 - -
31/04:00pm 23.1 - - - - SSE 32 46 17 25 1012.8 1012.7 -
31/03:30pm 23.4 - - - - SSE 41 48 22 26 1012.7 - -
31/03:00pm 23.3 - - - - S 39 50 21 27 1012.9 1012.9 -
31/02:30pm 23.1 - - - - SSE 37 48 20 26 1013.1 - -
31/02:00pm 23.3 - - - - SSE 37 46 20 25 1013.3 1013.3 -
31/01:30pm 23.5 - - - - S 37 44 20 24 1013.5 - -
31/01:00pm 23.2 - - - - SSE 37 46 20 25 1013.9 1013.9 -
31/12:30pm 23.4 - - - - SSE 33 46 18 25 1014.3 - -
31/12:00pm 23.4 - - - - SSE 30 43 16 23 1014.6 1014.7 -
31/11:30am 23.5 - - - - SSE 30 44 16 24 1015.1 - -
31/11:00am 23.6 - - - - SSE 30 43 16 23 1015.6 1015.6 -
31/10:30am 23.5 - - - - SSE 32 43 17 23 1015.9 - -
31/10:00am 23.2 - - - - SSE 32 39 17 21 1016.0 1016.0 -
31/09:30am 23.4 - - - - SSE 30 41 16 22 1016.4 - -
31/09:00am 23.4 - - - - SSE 33 44 18 24 1016.0 1015.9 -
31/08:30am 23.4 - - - - SSE 33 44 18 24 1016.0 - -
31/08:00am 23.5 - - - - SSE 35 41 19 22 1015.7 1015.5 -
31/07:30am 23.3 - - - - SSE 35 43 19 23 1015.4 - -
31/07:00am 23.4 - - - - SSE 33 44 18 24 1015.0 1014.9 -
31/06:30am 23.1 - - - - SSE 32 43 17 23 1014.8 - -
31/06:00am 23.1 - - - - SSE 28 39 15 21 1014.4 1014.3 -
31/05:30am 23.0 - - - - SE 30 46 16 25 1014.2 - -
31/05:00am 23.1 - - - - SE 30 39 16 21 1014.0 1013.8 -
31/04:30am 23.1 - - - - SSE 28 39 15 21 1013.8 - -
31/04:00am 23.2 - - - - SSE 24 37 13 20 1013.8 1013.6 -
31/03:30am 23.1 - - - - SE 26 39 14 21 1013.7 - -
31/03:00am 23.1 - - - - SE 26 37 14 20 1013.7 1013.8 -
31/02:30am 23.3 - - - - SE 26 35 14 19 1014.2 - -
31/02:00am 23.3 - - - - SE 24 39 13 21 1014.3 1014.3 -
31/01:30am 23.4 - - - - SE 24 39 13 21 1014.7 - -
31/01:00am 23.3 - - - - SE 26 41 14 22 1014.9 1015.1 -
31/12:30am 23.5 - - - - SE 26 39 14 21 1015.3 - -
31/12:29am 23.2 - - - - SE 28 46 15 25 1015.3 - -
31/12:00am 23.4 - - - - SE 32 43 17 23 1015.5 1015.5 -
 
Date/Time
EST
Temp
°C
App
Temp
°C
Dew
Point
Rel
Hum
%
Delta-T
°C
Wind Press
QNH
hPa
Press
MSL
hPa
Rain
since 9 am
mm
Dir
 
Spd
km/h
Gust
km/h
Spd
kts
Gust
kts
30/11:30pm 23.3 - - - - SSE 35 46 19 25 1015.9 - -
30/11:21pm 23.2 - - - - SE 28 46 15 25 1016.0 - -
30/11:00pm 23.4 - - - - SE 32 44 17 24 1016.1 1016.0 -
30/10:30pm 23.5 - - - - SE 37 50 20 27 1016.2 - -
30/10:06pm 23.5 - - - - SE 32 50 17 27 1016.2 - -
30/10:00pm 23.3 - - - - SE 32 50 17 27 1016.2 1016.1 -
30/09:30pm 23.5 - - - - SE 35 46 19 25 1016.2 - -
30/09:00pm 23.2 - - - - ESE 30 46 16 25 1016.1 1016.0 -
30/08:30pm 23.4 - - - - SE 28 43 15 23 1016.2 - -
30/08:23pm 23.2 - - - - SSE 30 48 16 26 1016.1 - -
30/08:00pm 23.4 - - - - SE 32 48 17 26 1016.0 1015.9 -
30/07:30pm 23.3 - - - - SSE 41 52 22 28 1015.5 - -
30/07:00pm 23.3 - - - - SSE 35 52 19 28 1015.5 1015.3 -
30/06:30pm 23.2 - - - - SE 32 41 17 22 1015.4 - -
30/06:05pm 22.7 - - - - SE 32 50 17 27 1015.1 - -
30/06:00pm 23.3 - - - - SE 30 52 16 28 1015.0 1014.8 -
30/05:52pm 23.0 - - - - SE 30 50 16 27 1015.0 - -
30/05:30pm 23.2 - - - - SSE 30 43 16 23 1014.8 - -
30/05:00pm 23.1 - - - - SE 30 41 16 22 1014.6 1014.3 -
30/04:50pm 23.1 - - - - SE 30 48 16 26 1014.4 - -
30/04:30pm 23.4 - - - - SE 28 44 15 24 1014.4 - -
30/04:23pm 23.2 - - - - E 30 44 16 24 1014.4 - -
30/04:00pm 23.2 - - - - SE 39 54 21 29 1014.2 1013.9 -
30/03:39pm 23.5 - - - - SE 32 50 17 27 1014.2 - -
30/03:30pm 23.3 - - - - SE 33 50 18 27 1014.1 - -
30/03:00pm 23.5 - - - - SE 30 50 16 27 1013.9 1013.9 -
30/02:30pm 23.3 - - - - SSE 30 48 16 26 1014.0 - -
30/02:02pm 23.5 - - - - SE 30 48 16 26 1014.4 - -
30/02:00pm 23.3 - - - - SSE 30 48 16 26 1014.4 1014.4 -
30/01:32pm 23.5 - - - - SSE 33 52 18 28 1014.6 - -
30/01:30pm 23.3 - - - - SE 35 52 19 28 1014.6 - -
30/01:00pm 23.3 - - - - SSE 32 46 17 25 1014.9 1015.1 -
30/12:30pm 23.2 - - - - SSE 37 48 20 26 1015.6 - -
30/12:06pm 23.4 - - - - SSE 32 52 17 28 1015.7 - -
30/12:00pm 23.5 - - - - SSE 33 48 18 26 1015.8 1015.9 -
30/11:30am 23.3 - - - - SSE 37 50 20 27 1016.0 - -
30/11:00am 22.8 - - - - SSE 39 50 21 27 1016.4 1016.3 -
30/10:30am 23.0 - - - - SSE 43 57 23 31 1016.6 - -
30/10:03am 22.9 - - - - SSE 37 56 20 30 1016.7 - -
30/10:00am 22.7 - - - - SE 41 56 22 30 1016.6 1016.5 -
30/09:30am 23.5 - - - - SE 43 52 23 28 1016.5 - -
30/09:00am 23.0 - - - - SSE 41 56 22 30 1016.5 1016.5 -
30/08:30am 23.1 - - - - SSE 41 56 22 30 1016.7 - -
30/08:00am 22.5 - - - - SSE 44 56 24 30 1016.8 1016.5 -
30/07:30am 23.0 - - - - SSE 39 50 21 27 1016.5 - -
30/07:00am 23.0 - - - - SE 39 52 21 28 1015.8 1015.5 -
30/06:55am 23.1 - - - - ESE 37 52 20 28 1015.8 - -
30/06:30am 22.9 - - - - SSE 39 50 21 27 1015.5 - -
30/06:00am 23.0 - - - - SE 37 50 20 27 1015.0 1015.0 -
30/05:30am 23.1 - - - - SE 41 54 22 29 1014.9 - -
30/05:00am 23.0 - - - - SE 32 52 17 28 1014.5 1014.6 -
30/04:30am 22.9 - - - - SSE 41 54 22 29 1014.5 - -
30/04:00am 22.5 - - - - SE 41 54 22 29 1014.5 1014.5 -
30/03:39am 22.2 - - - - SE 30 48 16 26 1014.7 - -
30/03:30am 22.9 - - - - ESE 35 43 19 23 1014.8 - -
30/03:00am 23.5 - - - - ESE 41 44 22 24 1014.6 1014.4 -
30/02:30am 23.8 - - - - ESE 39 48 21 26 1014.6 - -
30/02:00am 23.6 - - - - ESE 39 48 21 26 1014.8 1014.8 -
30/01:30am 23.6 - - - - SE 41 48 22 26 1015.1 - -
30/01:00am 23.8 - - - - SE 35 48 19 26 1015.3 1015.3 -
30/12:30am 23.6 - - - - SE 37 48 20 26 1015.6 - -
30/12:00am 23.5 - - - - SE 39 46 21 25 1015.9 1015.9 -
 
Date/Time
EST
Temp
°C
App
Temp
°C
Dew
Point
Rel
Hum
%
Delta-T
°C
Wind Press
QNH
hPa
Press
MSL
hPa
Rain
since 9 am
mm
Dir
 
Spd
km/h
Gust
km/h
Spd
kts
Gust
kts
29/11:30pm 23.9 - - - - SE 37 48 20 26 1016.2 - -
29/11:00pm 23.7 - - - - ESE 39 44 21 24 1016.2 1016.1 -
29/10:30pm 23.6 - - - - SE 39 52 21 28 1016.3 - -
29/10:09pm 23.6 - - - - ESE 39 46 21 25 1016.2 - -
29/10:00pm 23.5 - - - - SE 35 50 19 27 1016.2 1015.9 -
29/09:48pm 23.7 - - - - SE 35 48 19 26 1016.1 - -
29/09:30pm 23.7 - - - - ESE 43 52 23 28 1016.0 - -
29/09:00pm 23.7 - - - - SE 39 63 21 34 1015.9 1015.8 -
29/08:32pm 23.5 - - - - SE 35 54 19 29 1016.0 - -
29/08:30pm 23.8 - - - - SE 37 50 20 27 1016.0 - -
29/08:00pm 23.6 - - - - SE 37 46 20 25 1015.8 1015.6 -
29/07:30pm 23.5 - - - - SSE 37 50 20 27 1015.5 - -
29/07:00pm 23.5 - - - - ESE 32 50 17 27 1015.3 1015.1 -
29/06:58pm 23.5 - - - - SSE 41 50 22 27 1015.3 - -
29/06:53pm 23.6 - - - - ESE 32 50 17 27 1015.2 - -
29/06:30pm 23.6 - - - - SE 33 46 18 25 1015.2 - -
29/06:00pm 23.6 - - - - SE 35 50 19 27 1014.8 1014.6 -
29/05:46pm 23.6 - - - - SE 35 54 19 29 1014.7 - -
29/05:30pm 23.6 - - - - SE 39 52 21 28 1014.6 - -

Other Formats:

Comma delimited format used in spreadsheet applications
http://www.bom.gov.au/fwo/IDQ60801/IDQ60801.95288.axf

JavaScript Object Notation format (JSON) in row-major order
http://www.bom.gov.au/fwo/IDQ60801/IDQ60801.95288.json